sensor_id;sensor_type;location;lat;lon;timestamp;pressure;altitude;pressure_sealevel;temperature;humidity
18137;BME280;9194;42.632;23.298;2023-01-28T00:04:33;91879.31;;;0.23;100.00
18137;BME280;9194;42.632;23.298;2023-01-28T00:09:34;91885.72;;;0.19;100.00
18137;BME280;9194;42.632;23.298;2023-01-28T00:14:35;91894.03;;;0.21;100.00
18137;BME280;9194;42.632;23.298;2023-01-28T00:19:37;91900.53;;;0.24;100.00
18137;BME280;9194;42.632;23.298;2023-01-28T00:24:38;91912.13;;;0.34;100.00
18137;BME280;9194;42.632;23.298;2023-01-28T00:29:39;91911.56;;;0.24;100.00
18137;BME280;9194;42.632;23.298;2023-01-28T00:34:41;91914.06;;;0.32;100.00
18137;BME280;9194;42.632;23.298;2023-01-28T00:39:42;91920.25;;;0.23;100.00
18137;BME280;9194;42.632;23.298;2023-01-28T00:44:43;91922.06;;;0.29;100.00
18137;BME280;9194;42.632;23.298;2023-01-28T00:49:45;91924.56;;;0.23;100.00
18137;BME280;9194;42.632;23.298;2023-01-28T00:54:46;91923.66;;;0.30;100.00
18137;BME280;9194;42.632;23.298;2023-01-28T00:59:47;91928.63;;;0.17;100.00
18137;BME280;9194;42.632;23.298;2023-01-28T01:04:49;91929.94;;;0.13;100.00
18137;BME280;9194;42.632;23.298;2023-01-28T01:10:00;91929.31;;;0.26;100.00
18137;BME280;9194;42.632;23.298;2023-01-28T01:15:03;91917.75;;;0.15;100.00
18137;BME280;9194;42.632;23.298;2023-01-28T01:20:14;91931.59;;;0.06;100.00
18137;BME280;9194;42.632;23.298;2023-01-28T01:25:16;91928.63;;;0.17;100.00
18137;BME280;9194;42.632;23.298;2023-01-28T01:30:18;91932.84;;;0.10;100.00
18137;BME280;9194;42.632;23.298;2023-01-28T01:35:20;91931.78;;;0.19;100.00
18137;BME280;9194;42.632;23.298;2023-01-28T01:40:22;91935.66;;;0.30;100.00
18137;BME280;9194;42.632;23.298;2023-01-28T01:45:23;91922.44;;;0.26;100.00
18137;BME280;9194;42.632;23.298;2023-01-28T01:50:37;91937.88;;;0.33;100.00
18137;BME280;9194;42.632;23.298;2023-01-28T01:55:42;91934.34;;;0.19;100.00
18137;BME280;9194;42.632;23.298;2023-01-28T02:00:46;91937.16;;;0.10;100.00
18137;BME280;9194;42.632;23.298;2023-01-28T02:05:48;91936.06;;;-0.11;100.00
18137;BME280;9194;42.632;23.298;2023-01-28T02:10:59;91944.69;;;0.11;100.00
18137;BME280;9194;42.632;23.298;2023-01-28T02:16:03;91952.44;;;0.03;100.00
18137;BME280;9194;42.632;23.298;2023-01-28T02:31:18;91947.31;;;0.18;100.00
18137;BME280;9194;42.632;23.298;2023-01-28T02:41:33;91946.59;;;0.09;100.00
18137;BME280;9194;42.632;23.298;2023-01-28T02:46:37;91956.38;;;-0.09;100.00
18137;BME280;9194;42.632;23.298;2023-01-28T03:02:58;91956.47;;;0.12;100.00
18137;BME280;9194;42.632;23.298;2023-01-28T03:08:07;91957.47;;;0.11;100.00
18137;BME280;9194;42.632;23.298;2023-01-28T03:13:27;91957.38;;;0.05;100.00
18137;BME280;9194;42.632;23.298;2023-01-28T03:18:49;91958.16;;;0.05;100.00
18137;BME280;9194;42.632;23.298;2023-01-28T03:24:18;91957.47;;;0.11;100.00
18137;BME280;9194;42.632;23.298;2023-01-28T03:29:43;91960.91;;;0.04;100.00
18137;BME280;9194;42.632;23.298;2023-01-28T03:35:07;91964.16;;;-0.03;100.00
18137;BME280;9194;42.632;23.298;2023-01-28T03:40:27;91966.72;;;-0.03;100.00
18137;BME280;9194;42.632;23.298;2023-01-28T03:45:29;91971.03;;;-0.03;100.00
18137;BME280;9194;42.632;23.298;2023-01-28T03:50:33;91964.41;;;-0.12;100.00
18137;BME280;9194;42.632;23.298;2023-01-28T03:55:37;91969.09;;;-0.01;100.00
18137;BME280;9194;42.632;23.298;2023-01-28T04:00:39;91964.84;;;-0.09;100.00
18137;BME280;9194;42.632;23.298;2023-01-28T04:06:00;91978.88;;;-0.05;100.00
18137;BME280;9194;42.632;23.298;2023-01-28T04:11:13;91978.84;;;-0.19;100.00
18137;BME280;9194;42.632;23.298;2023-01-28T04:16:21;91979.44;;;-0.17;100.00
18137;BME280;9194;42.632;23.298;2023-01-28T04:21:22;91996.59;;;-0.03;100.00
18137;BME280;9194;42.632;23.298;2023-01-28T04:26:24;92000.53;;;-0.15;100.00
18137;BME280;9194;42.632;23.298;2023-01-28T04:31:25;91995.69;;;-0.10;100.00
18137;BME280;9194;42.632;23.298;2023-01-28T04:36:45;92004.47;;;-0.27;100.00
18137;BME280;9194;42.632;23.298;2023-01-28T04:42:14;92006.72;;;-0.10;100.00
18137;BME280;9194;42.632;23.298;2023-01-28T04:47:38;92021.41;;;-0.26;100.00
18137;BME280;9194;42.632;23.298;2023-01-28T04:53:05;92016.56;;;-0.21;100.00
18137;BME280;9194;42.632;23.298;2023-01-28T04:58:32;92029.53;;;-0.23;100.00
18137;BME280;9194;42.632;23.298;2023-01-28T05:03:37;92021.94;;;-0.31;100.00
18137;BME280;9194;42.632;23.298;2023-01-28T05:08:41;92044.25;;;-0.25;100.00
18137;BME280;9194;42.632;23.298;2023-01-28T05:13:42;92037.66;;;-0.19;100.00
18137;BME280;9194;42.632;23.298;2023-01-28T05:18:46;92048.44;;;-0.09;100.00
18137;BME280;9194;42.632;23.298;2023-01-28T05:23:50;92041.34;;;-0.22;100.00
18137;BME280;9194;42.632;23.298;2023-01-28T05:28:52;92050.28;;;-0.18;100.00
18137;BME280;9194;42.632;23.298;2023-01-28T05:33:53;92051.84;;;-0.17;100.00
18137;BME280;9194;42.632;23.298;2023-01-28T05:38:56;92069.03;;;-0.25;100.00
18137;BME280;9194;42.632;23.298;2023-01-28T05:43:58;92058.56;;;-0.16;100.00
18137;BME280;9194;42.632;23.298;2023-01-28T05:49:22;92056.97;;;-0.17;100.00
18137;BME280;9194;42.632;23.298;2023-01-28T05:54:41;71652.22;;;-0.15;100.00
18137;BME280;9194;42.632;23.298;2023-01-28T05:59:42;92063.47;;;-0.06;100.00
18137;BME280;9194;42.632;23.298;2023-01-28T06:04:44;92063.47;;;-0.06;100.00
18137;BME280;9194;42.632;23.298;2023-01-28T06:09:46;92079.09;;;-0.01;100.00
18137;BME280;9194;42.632;23.298;2023-01-28T06:14:54;92092.72;;;-0.09;100.00
18137;BME280;9194;42.632;23.298;2023-01-28T06:20:11;92101.31;;;-0.02;100.00
18137;BME280;9194;42.632;23.298;2023-01-28T06:25:13;92101.88;;;-0.14;100.00
18137;BME280;9194;42.632;23.298;2023-01-28T06:30:15;92106.66;;;-0.11;100.00
18137;BME280;9194;42.632;23.298;2023-01-28T06:35:16;92114.50;;;-0.13;100.00
18137;BME280;9194;42.632;23.298;2023-01-28T06:40:18;92124.78;;;0.02;100.00
18137;BME280;9194;42.632;23.298;2023-01-28T06:45:19;92130.31;;;0.14;100.00
18137;BME280;9194;42.632;23.298;2023-01-28T06:50:21;92132.47;;;-142.64;100.00
18137;BME280;9194;42.632;23.298;2023-01-28T06:55:22;92140.78;;;0.04;100.00
18137;BME280;9194;42.632;23.298;2023-01-28T07:00:23;92146.09;;;-0.06;100.00
18137;BME280;9194;42.632;23.298;2023-01-28T07:05:25;92158.00;;;-0.13;100.00
18137;BME280;9194;42.632;23.298;2023-01-28T07:10:27;92163.31;;;0.00;100.00
18137;BME280;9194;42.632;23.298;2023-01-28T07:15:28;92168.22;;;-0.13;100.00
18137;BME280;9194;42.632;23.298;2023-01-28T07:20:29;92173.22;;;-0.19;100.00
18137;BME280;9194;42.632;23.298;2023-01-28T07:25:31;92186.56;;;-0.09;100.00
18137;BME280;9194;42.632;23.298;2023-01-28T07:30:32;92186.94;;;-0.12;100.00
18137;BME280;9194;42.632;23.298;2023-01-28T07:35:33;92188.84;;;0.17;100.00
18137;BME280;9194;42.632;23.298;2023-01-28T07:40:35;92189.28;;;0.20;100.00
18137;BME280;9194;42.632;23.298;2023-01-28T07:45:36;92195.09;;;0.37;100.00
18137;BME280;9194;42.632;23.298;2023-01-28T07:50:38;92187.53;;;0.44;100.00
18137;BME280;9194;42.632;23.298;2023-01-28T07:55:40;92196.69;;;0.38;100.00
18137;BME280;9194;42.632;23.298;2023-01-28T08:00:41;92204.09;;;0.70;100.00
18137;BME280;9194;42.632;23.298;2023-01-28T08:05:45;92210.25;;;0.84;100.00
18137;BME280;9194;42.632;23.298;2023-01-28T08:10:47;92206.19;;;0.90;100.00
18137;BME280;9194;42.632;23.298;2023-01-28T08:15:48;92202.34;;;1.08;100.00
18137;BME280;9194;42.632;23.298;2023-01-28T08:20:54;92204.47;;;1.19;100.00
18137;BME280;9194;42.632;23.298;2023-01-28T08:25:57;92217.88;;;1.07;100.00
18137;BME280;9194;42.632;23.298;2023-01-28T08:30:59;92214.38;;;1.52;100.00
18137;BME280;9194;42.632;23.298;2023-01-28T08:36:02;92222.00;;;1.60;97.93
18137;BME280;9194;42.632;23.298;2023-01-28T08:41:04;92210.50;;;1.85;97.56
18137;BME280;9194;42.632;23.298;2023-01-28T08:46:05;92205.22;;;1.93;95.07
18137;BME280;9194;42.632;23.298;2023-01-28T08:51:07;92208.59;;;2.44;94.17
18137;BME280;9194;42.632;23.298;2023-01-28T08:56:09;92212.38;;;2.48;91.69
18137;BME280;9194;42.632;23.298;2023-01-28T09:01:10;92214.97;;;2.34;91.88
18137;BME280;9194;42.632;23.298;2023-01-28T09:06:12;92212.53;;;2.68;89.57
18137;BME280;9194;42.632;23.298;2023-01-28T09:11:13;92209.44;;;2.73;91.87
18137;BME280;9194;42.632;23.298;2023-01-28T09:16:14;92210.31;;;2.23;92.86
18137;BME280;9194;42.632;23.298;2023-01-28T09:21:16;92219.50;;;1.96;95.92
18137;BME280;9194;42.632;23.298;2023-01-28T09:26:17;92219.50;;;2.32;94.52
18137;BME280;9194;42.632;23.298;2023-01-28T09:31:18;92217.34;;;1.99;96.21
18137;BME280;9194;42.632;23.298;2023-01-28T09:36:20;92216.88;;;2.25;96.10
18137;BME280;9194;42.632;23.298;2023-01-28T09:41:49;92218.56;;;2.18;95.35
18137;BME280;9194;42.632;23.298;2023-01-28T09:46:45;92206.75;;;2.60;93.37
18137;BME280;9194;42.632;23.298;2023-01-28T09:51:51;92210.84;;;2.54;94.03
18137;BME280;9194;42.632;23.298;2023-01-28T09:57:00;92211.13;;;3.08;92.10
18137;BME280;9194;42.632;23.298;2023-01-28T10:02:36;92207.00;;;2.93;91.04
18137;BME280;9194;42.632;23.298;2023-01-28T10:18:12;92205.31;;;2.15;97.72
18137;BME280;9194;42.632;23.298;2023-01-28T10:28:39;92215.53;;;1.79;99.07
18137;BME280;9194;42.632;23.298;2023-01-28T10:33:40;92220.50;;;1.65;100.00
18137;BME280;9194;42.632;23.298;2023-01-28T10:38:41;92215.06;;;1.75;100.00
18137;BME280;9194;42.632;23.298;2023-01-28T10:43:43;92221.47;;;1.79;100.00
18137;BME280;9194;42.632;23.298;2023-01-28T10:48:55;92206.41;;;1.76;100.00
18137;BME280;9194;42.632;23.298;2023-01-28T10:53:58;92199.75;;;1.96;100.00
18137;BME280;9194;42.632;23.298;2023-01-28T10:59:02;92208.88;;;1.70;100.00
18137;BME280;9194;42.632;23.298;2023-01-28T11:04:05;92208.06;;;1.98;98.73
18137;BME280;9194;42.632;23.298;2023-01-28T11:09:20;92211.44;;;2.35;95.99
18137;BME280;9194;42.632;23.298;2023-01-28T11:14:24;92200.78;;;2.80;92.69
18137;BME280;9194;42.632;23.298;2023-01-28T11:19:32;92199.00;;;2.81;91.74
18137;BME280;9194;42.632;23.298;2023-01-28T11:24:34;92211.25;;;2.36;93.23
18137;BME280;9194;42.632;23.298;2023-01-28T11:29:38;92197.75;;;2.49;93.35
18137;BME280;9194;42.632;23.298;2023-01-28T11:34:48;92201.94;;;2.35;92.28
18137;BME280;9194;42.632;23.298;2023-01-28T11:40:17;92200.91;;;2.51;91.20
18137;BME280;9194;42.632;23.298;2023-01-28T11:45:40;92201.53;;;2.74;90.37
18137;BME280;9194;42.632;23.298;2023-01-28T11:50:56;92193.31;;;2.85;89.37
18137;BME280;9194;42.632;23.298;2023-01-28T12:07:02;92189.75;;;3.08;88.82
18137;BME280;9194;42.632;23.298;2023-01-28T12:23:12;92186.03;;;2.89;89.50
18137;BME280;9194;42.632;23.298;2023-01-28T12:28:24;92198.28;;;3.15;88.61
18137;BME280;9194;42.632;23.298;2023-01-28T12:33:46;92188.50;;;3.04;90.18
18137;BME280;9194;42.632;23.298;2023-01-28T12:43:53;92207.72;;;2.59;90.25
18137;BME280;9194;42.632;23.298;2023-01-28T12:59:11;92232.63;;;2.79;93.47
18137;BME280;9194;42.632;23.298;2023-01-28T13:04:31;92225.16;;;2.27;95.01
18137;BME280;9194;42.632;23.298;2023-01-28T13:09:36;92225.53;;;2.60;94.91
18137;BME280;9194;42.632;23.298;2023-01-28T13:14:39;92227.22;;;2.74;94.76
18137;BME280;9194;42.632;23.298;2023-01-28T13:19:41;92227.69;;;3.06;91.30
18137;BME280;9194;42.632;23.298;2023-01-28T13:24:42;92231.78;;;2.72;91.43
18137;BME280;9194;42.632;23.298;2023-01-28T13:29:47;92234.75;;;2.76;91.22
18137;BME280;9194;42.632;23.298;2023-01-28T13:34:57;92254.84;;;2.30;95.80
18137;BME280;9194;42.632;23.298;2023-01-28T13:40:21;92252.88;;;2.32;93.55
18137;BME280;9194;42.632;23.298;2023-01-28T13:45:24;92258.19;;;2.30;92.28
18137;BME280;9194;42.632;23.298;2023-01-28T13:50:35;92259.72;;;2.61;93.22
18137;BME280;9194;42.632;23.298;2023-01-28T13:55:38;92259.97;;;2.30;91.82
18137;BME280;9194;42.632;23.298;2023-01-28T14:06:40;92280.72;;;2.14;93.16
18137;BME280;9194;42.632;23.298;2023-01-28T14:22:26;92294.78;;;1.59;100.00
18137;BME280;9194;42.632;23.298;2023-01-28T14:27:35;92301.34;;;1.61;100.00
18137;BME280;9194;42.632;23.298;2023-01-28T14:32:45;92301.06;;;1.04;100.00
18137;BME280;9194;42.632;23.298;2023-01-28T14:37:47;92295.84;;;1.12;100.00
18137;BME280;9194;42.632;23.298;2023-01-28T14:42:51;92294.84;;;0.99;100.00
18137;BME280;9194;42.632;23.298;2023-01-28T14:59:46;92317.72;;;0.77;100.00
18137;BME280;9194;42.632;23.298;2023-01-28T15:04:29;92326.50;;;0.83;100.00
18137;BME280;9194;42.632;23.298;2023-01-28T15:09:31;92321.56;;;0.51;100.00
18137;BME280;9194;42.632;23.298;2023-01-28T15:14:32;92336.81;;;0.75;100.00
18137;BME280;9194;42.632;23.298;2023-01-28T15:19:35;92332.75;;;0.58;100.00
18137;BME280;9194;42.632;23.298;2023-01-28T15:24:41;-17505.63;;;0.52;84.14
18137;BME280;9194;42.632;23.298;2023-01-28T15:29:51;92330.66;;;0.53;100.00
18137;BME280;9194;42.632;23.298;2023-01-28T15:34:53;75589.75;;;0.51;100.00
18137;BME280;9194;42.632;23.298;2023-01-28T15:40:03;91863.94;;;0.61;100.00
18137;BME280;9194;42.632;23.298;2023-01-28T15:45:16;92349.69;;;0.59;100.00
18137;BME280;9194;42.632;23.298;2023-01-28T15:50:23;92363.47;;;0.58;100.00
18137;BME280;9194;42.632;23.298;2023-01-28T15:55:35;92362.28;;;0.29;100.00
18137;BME280;9194;42.632;23.298;2023-01-28T16:00:37;92361.91;;;0.49;100.00
18137;BME280;9194;42.632;23.298;2023-01-28T16:05:40;92368.47;;;0.51;100.00
18137;BME280;9194;42.632;23.298;2023-01-28T16:10:51;92384.00;;;0.41;100.00
18137;BME280;9194;42.632;23.298;2023-01-28T16:15:55;92383.03;;;0.51;100.00
18137;BME280;9194;42.632;23.298;2023-01-28T16:20:58;92383.41;;;0.39;100.00
18137;BME280;9194;42.632;23.298;2023-01-28T16:26:05;92388.16;;;0.43;100.00
18137;BME280;9194;42.632;23.298;2023-01-28T16:31:09;92401.47;;;0.46;100.00
18137;BME280;9194;42.632;23.298;2023-01-28T16:36:15;92400.31;;;0.49;100.00
18137;BME280;9194;42.632;23.298;2023-01-28T16:41:31;92405.44;;;0.49;100.00
18137;BME280;9194;42.632;23.298;2023-01-28T16:46:33;92404.09;;;0.61;100.00
18137;BME280;9194;42.632;23.298;2023-01-28T16:51:36;92411.41;;;0.72;100.00
18137;BME280;9194;42.632;23.298;2023-01-28T16:56:38;92413.94;;;0.80;100.00
18137;BME280;9194;42.632;23.298;2023-01-28T17:01:40;92408.16;;;0.86;100.00
18137;BME280;9194;42.632;23.298;2023-01-28T17:06:43;92419.38;;;0.77;100.00
18137;BME280;9194;42.632;23.298;2023-01-28T17:11:45;92418.00;;;0.66;100.00
18137;BME280;9194;42.632;23.298;2023-01-28T17:16:46;92428.50;;;0.79;100.00
18137;BME280;9194;42.632;23.298;2023-01-28T17:21:47;92423.38;;;0.79;100.00
18137;BME280;9194;42.632;23.298;2023-01-28T17:26:52;92435.38;;;0.87;100.00
18137;BME280;9194;42.632;23.298;2023-01-28T17:31:53;92427.03;;;0.85;99.88
18137;BME280;9194;42.632;23.298;2023-01-28T17:36:55;92438.75;;;0.79;99.94
18137;BME280;9194;42.632;23.298;2023-01-28T17:41:56;92436.03;;;0.81;100.00
18137;BME280;9194;42.632;23.298;2023-01-28T17:46:57;92441.22;;;0.65;100.00
18137;BME280;9194;42.632;23.298;2023-01-28T17:52:00;92448.41;;;0.69;100.00
18137;BME280;9194;42.632;23.298;2023-01-28T17:57:02;92448.41;;;0.69;100.00
18137;BME280;9194;42.632;23.298;2023-01-28T18:02:03;92456.91;;;0.62;100.00
18137;BME280;9194;42.632;23.298;2023-01-28T18:07:06;92457.22;;;0.67;100.00
18137;BME280;9194;42.632;23.298;2023-01-28T18:12:13;92456.47;;;0.58;100.00
18137;BME280;9194;42.632;23.298;2023-01-28T18:17:14;92449.56;;;0.59;100.00
18137;BME280;9194;42.632;23.298;2023-01-28T18:22:16;92463.16;;;0.59;100.00
18137;BME280;9194;42.632;23.298;2023-01-28T18:27:17;92470.09;;;0.51;100.00
18137;BME280;9194;42.632;23.298;2023-01-28T18:32:20;92470.09;;;-125.83;100.00
18137;BME280;9194;42.632;23.298;2023-01-28T18:37:21;92465.91;;;0.58;100.00
18137;BME280;9194;42.632;23.298;2023-01-28T18:42:23;92481.44;;;0.48;100.00
18137;BME280;9194;42.632;23.298;2023-01-28T18:47:24;92490.28;;;0.46;100.00
18137;BME280;9194;42.632;23.298;2023-01-28T18:52:27;92481.44;;;0.48;100.00
18137;BME280;9194;42.632;23.298;2023-01-28T18:57:28;92478.72;;;0.58;100.00
18137;BME280;9194;42.632;23.298;2023-01-28T19:02:29;92485.75;;;0.64;100.00
18137;BME280;9194;42.632;23.298;2023-01-28T19:07:31;92486.22;;;0.59;100.00
18137;BME280;9194;42.632;23.298;2023-01-28T19:12:32;92486.75;;;0.47;100.00
18137;BME280;9194;42.632;23.298;2023-01-28T19:17:33;92496.03;;;0.39;100.00
18137;BME280;9194;42.632;23.298;2023-01-28T19:22:34;92498.22;;;0.59;100.00
18137;BME280;9194;42.632;23.298;2023-01-28T19:27:36;92498.09;;;0.52;100.00
18137;BME280;9194;42.632;23.298;2023-01-28T19:32:37;92515.22;;;0.35;100.00
18137;BME280;9194;42.632;23.298;2023-01-28T19:37:39;92526.91;;;0.30;100.00
18137;BME280;9194;42.632;23.298;2023-01-28T19:42:40;92520.69;;;0.40;100.00
18137;BME280;9194;42.632;23.298;2023-01-28T19:47:41;92529.97;;;0.33;100.00
18137;BME280;9194;42.632;23.298;2023-01-28T19:52:42;92524.22;;;-142.64;100.00
18137;BME280;9194;42.632;23.298;2023-01-28T19:57:44;92523.88;;;0.43;100.00
18137;BME280;9194;42.632;23.298;2023-01-28T20:02:49;92523.41;;;0.39;100.00
18137;BME280;9194;42.632;23.298;2023-01-28T20:07:50;92534.91;;;0.43;100.00
18137;BME280;9194;42.632;23.298;2023-01-28T20:12:51;92534.91;;;0.51;100.00
18137;BME280;9194;42.632;23.298;2023-01-28T20:17:53;92531.03;;;0.47;100.00
18137;BME280;9194;42.632;23.298;2023-01-28T20:22:54;92530.53;;;0.60;100.00
18137;BME280;9194;42.632;23.298;2023-01-28T20:27:55;92522.38;;;0.64;100.00
18137;BME280;9194;42.632;23.298;2023-01-28T20:32:57;92531.53;;;0.51;100.00
18137;BME280;9194;42.632;23.298;2023-01-28T20:37:58;92530.53;;;0.60;100.00
18137;BME280;9194;42.632;23.298;2023-01-28T20:43:03;92530.72;;;0.58;100.00
18137;BME280;9194;42.632;23.298;2023-01-28T20:48:05;92536.97;;;0.56;100.00
18137;BME280;9194;42.632;23.298;2023-01-28T20:53:06;92550.88;;;0.61;100.00
18137;BME280;9194;42.632;23.298;2023-01-28T20:58:08;92546.41;;;0.47;100.00
18137;BME280;9194;42.632;23.298;2023-01-28T21:03:09;92543.19;;;0.53;100.00
18137;BME280;9194;42.632;23.298;2023-01-28T21:08:11;92553.47;;;0.45;100.00
18137;BME280;9194;42.632;23.298;2023-01-28T21:13:13;92555.53;;;0.41;100.00
18137;BME280;9194;42.632;23.298;2023-01-28T21:18:15;92570.78;;;0.35;100.00
18137;BME280;9194;42.632;23.298;2023-01-28T21:23:16;92568.22;;;0.35;100.00
18137;BME280;9194;42.632;23.298;2023-01-28T21:28:18;92579.56;;;0.24;100.00
18137;BME280;9194;42.632;23.298;2023-01-28T21:33:20;92572.38;;;0.28;100.00
18137;BME280;9194;42.632;23.298;2023-01-28T21:38:21;72015.47;;;0.18;100.00
18137;BME280;9194;42.632;23.298;2023-01-28T21:43:22;92578.28;;;0.12;100.00
18137;BME280;9194;42.632;23.298;2023-01-28T21:48:24;92580.84;;;0.04;100.00
18137;BME280;9194;42.632;23.298;2023-01-28T21:53:25;92575.56;;;0.14;100.00
18137;BME280;9194;42.632;23.298;2023-01-28T21:58:26;92579.25;;;0.11;100.00
18137;BME280;9194;42.632;23.298;2023-01-28T22:03:46;92580.19;;;0.02;100.00
18137;BME280;9194;42.632;23.298;2023-01-28T22:08:48;92581.78;;;-0.05;100.00
18137;BME280;9194;42.632;23.298;2023-01-28T22:13:51;92576.22;;;-0.01;100.00
18137;BME280;9194;42.632;23.298;2023-01-28T22:18:55;92583.72;;;0.09;100.00
18137;BME280;9194;42.632;23.298;2023-01-28T22:23:56;75518.19;;;-142.65;100.00
18137;BME280;9194;42.632;23.298;2023-01-28T22:28:57;58723.03;;;-142.65;100.00
18137;BME280;9194;42.632;23.298;2023-01-28T22:33:59;58723.03;;;-142.65;100.00
18137;BME280;9194;42.632;23.298;2023-01-28T22:39:05;58723.03;;;-142.65;100.00
18137;BME280;9194;42.632;23.298;2023-01-28T22:44:07;58723.03;;;-142.65;100.00
18137;BME280;9194;42.632;23.298;2023-01-28T22:49:09;58723.03;;;-142.65;100.00
18137;BME280;9194;42.632;23.298;2023-01-28T22:54:11;58723.03;;;-142.65;100.00
18137;BME280;9194;42.632;23.298;2023-01-28T22:59:14;58723.03;;;-142.65;100.00
18137;BME280;9194;42.632;23.298;2023-01-28T23:04:15;58723.03;;;-142.65;100.00
18137;BME280;9194;42.632;23.298;2023-01-28T23:09:17;58723.03;;;-142.65;100.00
18137;BME280;9194;42.632;23.298;2023-01-28T23:14:18;58723.03;;;-142.65;100.00
18137;BME280;9194;42.632;23.298;2023-01-28T23:19:38;58723.03;;;-142.65;100.00
18137;BME280;9194;42.632;23.298;2023-01-28T23:24:58;58723.03;;;-142.65;100.00
18137;BME280;9194;42.632;23.298;2023-01-28T23:29:59;58723.03;;;-142.65;100.00
18137;BME280;9194;42.632;23.298;2023-01-28T23:35:00;58723.03;;;-142.65;100.00
18137;BME280;9194;42.632;23.298;2023-01-28T23:40:03;58723.03;;;-142.65;100.00
18137;BME280;9194;42.632;23.298;2023-01-28T23:45:05;58723.03;;;-142.65;100.00
18137;BME280;9194;42.632;23.298;2023-01-28T23:50:07;58723.03;;;-142.65;100.00
18137;BME280;9194;42.632;23.298;2023-01-28T23:55:08;58723.03;;;-142.65;100.00
